• Join FlightAware (Why Join?)
  • Login
  • US Flag 
03:30AM EDT


 

Airport Tracker/Info


-or-


 

Live Flight TrackerFlight Track Log ✈ UAL289 ✈ 21-Apr-2013 ✈ KLGA - KORD

Flight Track Log - Related Links

Times and Time Zones

All times are in EDT time to prevent confusion due to time zone crossing. See the UAL289 flight status page for this flight to view local times or setup timezone preferences in your user account.

Time Position Orientation Groundspeed Altitude Reporting Facility
EDT Latitude Longitude Course Direction KTS MPH feet Rate Location/Type
01:03PM 40.7833 -73.8667 27° Northeast 130 150 1,100  Level New York TRACON
01:04PM 40.8333 -73.8333 27° Northeast 184 212 3,200 2,520 Climbing New York TRACON
01:05PM 40.8833 -73.8333 360° North 230 265 6,200 3,060 Climbing New York TRACON
01:06PM 40.9167 -73.9000 304° West 263 303 9,400 2,340 Climbing New York TRACON
01:07PM 40.9500 -73.9833 298° West 303 349 10,900 2,340 Climbing New York TRACON
01:08PM 40.9833 -74.1167 288° West 350 403 14,100 1,740 Climbing New York TRACON
01:10PM 41.0433 -74.3339 290° West 357 411 16,000 600 Climbing New York Center
01:11PM 41.0750 -74.4539 289° West 352 405 16,000  Level New York Center
01:12PM 41.1028 -74.5600 289° West 347 399 16,000 720 Level New York Center
01:13PM 41.1358 -74.6967 288° West 352 405 17,500 1,740 Climbing New York Center
01:14PM 41.1864 -74.8072 301° West 352 405 19,600 2,340 Climbing New York Center
01:15PM 41.2344 -74.9203 300° West 352 405 22,300 2,220 Climbing New York Center
01:16PM 41.2825 -75.0339 299° West 357 411 24,100 1,860 Climbing New York Center
01:17PM 41.3286 -75.1389 300° West 363 418 26,000 1,800 Climbing New York Center
01:18PM 41.3806 -75.2583 300° West 368 423 27,700 1,380 Climbing New York Center
01:19PM 41.4319 -75.3808 299° West 368 423 28,900 1,200 Climbing New York Center
01:20PM 41.4831 -75.5117 298° West 378 435 30,200 1,260 Climbing New York Center
01:21PM 41.5269 -75.6617 291° West 388 447 31,400 1,440 Climbing New York Center
01:22PM 41.5633 -75.7864 291° West 400 460 33,100 1,560 Climbing New York Center
01:23PM 41.6014 -75.9194 291° West 393 452 34,500 1,140 Climbing New York Center
01:24PM 41.6411 -76.0558 291° West 393 452 35,400 960 Climbing New York Center
01:25PM 41.6767 -76.1919 289° West 393 452 36,500 840 Climbing New York Center
01:26PM 41.7164 -76.3286 291° West 398 458 37,100 660 Climbing New York Center
01:27PM 41.7533 -76.4681 290° West 398 458 37,900 300 Climbing New York Center
01:28PM 41.8194 -76.7072 290° West 400 460 38,000  Climbing Cleveland Center
01:29PM 41.8597 -76.8525 290° West 400 460 38,000  Level Cleveland Center
01:30PM 41.8997 -76.9925 291° West 400 460 38,000  Level Cleveland Center
01:31PM 41.9375 -77.1328 290° West 400 460 38,000  Level Cleveland Center
01:32PM 41.9750 -77.2733 290° West 400 460 38,000  Level Cleveland Center
01:33PM 42.0122 -77.4167 289° West 405 466 38,000  Level Cleveland Center
01:34PM 42.0514 -77.5572 291° West 405 466 38,000  Level Cleveland Center
01:35PM 42.0908 -77.7039 290° West 405 466 38,000  Level Cleveland Center
01:36PM 42.1275 -77.8450 289° West 405 466 38,000  Level Cleveland Center
01:37PM 42.1642 -77.9892 289° West 405 466 38,000  Level Cleveland Center
01:38PM 42.2028 -78.1333 290° West 405 466 38,000  Level Cleveland Center
01:39PM 42.2392 -78.2778 289° West 405 466 38,000  Level Cleveland Center
01:40PM 42.2775 -78.4222 290° West 405 466 38,000  Level Cleveland Center
01:41PM 42.3133 -78.5672 289° West 405 466 38,000  Level Cleveland Center
01:42PM 42.3511 -78.7064 290° West 400 460 38,000  Level Cleveland Center
01:43PM 42.3847 -78.8517 287° West 400 460 38,000  Level Cleveland Center
01:44PM 42.4222 -78.9942 290° West 400 460 38,000  Level Cleveland Center
01:45PM 42.4594 -79.1367 290° West 405 466 38,000  Level Cleveland Center
01:46PM 42.4883 -79.2794 285° West 400 460 38,000  Level Cleveland Center
01:47PM 42.5003 -79.4314 276° West 400 460 38,000  Level Cleveland Center
01:48PM 42.5058 -79.5806 273° West 400 460 38,000  Level Cleveland Center
01:49PM 42.5156 -79.7297 275° West 400 460 38,000  Level Cleveland Center
01:50PM 42.5228 -79.8789 274° West 405 466 38,000  Level Cleveland Center
01:51PM 42.5256 -80.0281 271° West 405 466 38,000  Level Cleveland Center
01:52PM 42.5325 -80.1775 274° West 398 458 38,000  Level Cleveland Center
01:53PM 42.5369 -80.3267 272° West 393 452 38,000  Level Cleveland Center
01:54PM 42.5456 -80.4761 275° West 398 458 38,000  Level Cleveland Center
01:55PM 42.5497 -80.6256 272° West 405 466 38,000  Level Cleveland Center
01:56PM 42.5558 -80.7778 273° West 400 460 38,000  Level Cleveland Center
01:57PM 42.5619 -80.9242 273° West 402 463 38,000  Level Cleveland Center
01:58PM 42.5675 -81.0597 273° West 402 463 38,000  Level Cleveland Center
01:59PM 42.5711 -81.2092 272° West 408 470 38,000  Level Cleveland Center
02:00PM 42.5764 -81.3614 273° West 402 463 38,000  Level Cleveland Center
02:01PM 42.5939 -81.5111 279° West 402 463 38,000  Level Cleveland Center
02:02PM 42.6197 -81.6611 283° West 412 474 38,000  Level Cleveland Center
02:03PM 42.6456 -81.8053 284° West 405 466 38,000  Level Cleveland Center
02:04PM 42.6731 -81.9556 284° West 405 466 38,000  Level Cleveland Center
02:05PM 42.6981 -82.1058 283° West 405 466 38,000  Level Cleveland Center
02:06PM 42.7231 -82.2592 283° West 416 479 38,000  Level Cleveland Center
02:07PM 42.7458 -82.4094 282° West 416 479 38,000  Level Cleveland Center
02:08PM 42.7558 -82.5625 275° West 416 479 38,000  Level Cleveland Center
02:09PM 42.7678 -82.7156 276° West 411 473 38,000  Level Cleveland Center
02:10PM 42.7794 -82.8661 276° West 411 473 38,000  Level Cleveland Center
02:11PM 42.7886 -83.0247 275° West 411 473 38,000  Level Cleveland Center
02:12PM 42.7978 -83.1808 275° West 411 473 38,000  Level Cleveland Center
02:13PM 42.8089 -83.3314 276° West 411 473 38,000 -240 Level Cleveland Center
02:14PM 42.8194 -83.4903 275° West 411 473 37,600 -720 Descending Cleveland Center
02:15PM 42.8281 -83.6408 275° West 411 473 36,600 -1,020 Descending Cleveland Center
02:16PM 42.8383 -83.8000 275° West 411 473 35,600 -960 Descending Cleveland Center
02:17PM 42.8486 -83.9533 275° West 411 473 34,700 -1,080 Descending Cleveland Center
02:18PM 42.8567 -84.1039 274° West 411 473 33,500 -1,200 Descending Cleveland Center
02:19PM 42.8642 -84.2603 274° West 406 467 32,300 -780 Descending Cleveland Center
02:20PM 42.8717 -84.4136 274° West 406 467 32,000 -180 Descending Cleveland Center
02:21PM 42.8789 -84.5700 274° West 411 473 32,000  Level Cleveland Center
02:22PM 42.8656 -84.7611 265° West 417 480 32,000  Level Chicago Center
02:23PM 42.8497 -84.9178 262° West 417 480 32,000  Level Chicago Center
02:24PM 42.8322 -85.0739 261° West 417 480 32,000  Level Chicago Center
02:25PM 42.8156 -85.2308 262° West 418 481 32,000 -480 Level Chicago Center
02:26PM 42.7983 -85.3858 261° West 416 479 31,100 -1,380 Descending Chicago Center
02:27PM 42.7794 -85.5381 260° West 410 472 29,200 -1,800 Descending Chicago Center
02:28PM 42.7533 -85.6794 256° West 390 449 27,500 -1,980 Descending Chicago Center
02:30PM 42.7228 -85.8442 256° West 376 433 25,200 -2,040 Descending Chicago Center
02:31PM 42.6994 -85.9792 257° West 369 425 23,300 -1,860 Descending Chicago Center
02:32PM 42.6750 -86.1097 256° West 359 413 21,400 -1,620 Descending Chicago Center
02:33PM 42.6514 -86.2372 256° West 351 404 20,000 -720 Descending Chicago Center
02:34PM 42.6278 -86.3625 256° West 343 395 20,000 -480 Level Chicago Center
02:35PM 42.6058 -86.4764 255° West 312 359 19,100 -960 Descending Chicago Center
02:36PM 42.5861 -86.5872 256° West 302 348 18,100 -720 Descending Chicago Center
02:37PM 42.5642 -86.7114 257° West 311 358 17,700 -660 Descending Chicago Center
02:38PM 42.5353 -86.8186 250° West 307 353 16,800 -1,260 Descending Chicago Center
02:39PM 42.5036 -86.9350 250° West 299 344 15,100 -1,680 Descending Chicago Center
02:40PM 42.4761 -87.0358 250° West 290 334 13,400 -1,500 Descending Chicago Center
02:41PM 42.4486 -87.1342 249° West 282 325 12,100 -1,860 Descending Chicago Center
02:42PM 42.4228 -87.2264 249° West 266 306 9,600 -1,980 Descending Chicago Center
02:43PM 42.3919 -87.3389 250° West 266 306 8,000 -1,260 Descending Chicago Center
02:44PM 42.3661 -87.4297 249° West 253 291 7,000 -540 Descending Chicago Center
02:45PM 42.3403 -87.5061 245° Southwest 227 261 7,000  Level Chicago Center
02:46PM 42.3017 -87.5647 228° Southwest 211 243 7,000 -180 Level Chicago Center
02:47PM 42.2547 -87.6142 218° Southwest 215 247 6,700 -720 Descending Chicago Center
02:48PM 42.2081 -87.6622 217° Southwest 213 245 5,600 -1,140 Descending Chicago Center
02:49PM 42.1572 -87.7200 220° Southwest 202 232 4,400 -1,020 Descending Chicago Center
02:50PM 42.1189 -87.7619 219° Southwest 189 217 3,600 -720 Descending Chicago Center
02:51PM 42.1000 -87.7833 220° Southwest 172 198 3,300 -600 Descending Chicago TRACON